Time;durP1;ratioP1;P1;durP2;ratioP2;P2;SDS_P1;SDS_P2;PMS_P1;PMS_P2;Temp;Humidity;BMP_temperature;BMP_pressure;BME280_temperature;BME280_humidity;BME280_pressure;Samples;Min_cycle;Max_cycle;Signal;HPM_P1;HPM_P2
2023/04/05 00:01:14;;;;;;;6.13;4.05;;;;;;;;;;5040727;28;20097;-84
2023/04/05 00:03:41;;;;;;;4.55;3.03;;;;;;;;;;5036733;28;20018;-83
2023/04/05 00:06:07;;;;;;;1.90;1.60;;;;;;;;;;5045310;28;20017;-83
2023/04/05 00:08:32;;;;;;;5.53;1.08;;;;;;;;;;5039413;28;20032;-84
2023/04/05 00:10:58;;;;;;;3.58;1.88;;;;;;;;;;5040282;28;20017;-83
2023/04/05 00:13:24;;;;;;;2.78;1.65;;;;;;;;;;5045264;28;20474;-83
2023/04/05 00:15:50;;;;;;;4.03;2.47;;;;;;;;;;5037043;28;20030;-81
2023/04/05 00:18:22;;;;;;;2.58;1.50;;;;;;;;;;5044519;28;20029;-84
2023/04/05 00:20:52;;;;;;;1.92;1.70;;;;;;;;;;5038467;28;20389;-82
2023/04/05 00:23:17;;;;;;;3.38;2.85;;;;;;;;;;5044955;28;20029;-82
2023/04/05 00:25:43;;;;;;;1.33;1.20;;;;;;;;;;5043598;28;20036;-82
2023/04/05 00:28:10;;;;;;;2.53;1.55;;;;;;;;;;5036449;28;20536;-82
2023/04/05 00:30:35;;;;;;;2.78;1.67;;;;;;;;;;5040828;28;20078;-82
2023/04/05 00:33:01;;;;;;;1.58;1.33;;;;;;;;;;5040135;28;20104;-81
2023/04/05 00:35:27;;;;;;;2.53;1.67;;;;;;;;;;5040890;28;20040;-82
2023/04/05 00:37:52;;;;;;;2.08;1.73;;;;;;;;;;5043917;28;20025;-82
2023/04/05 00:40:18;;;;;;;1.02;0.98;;;;;;;;;;5037173;28;20108;-83
2023/04/05 00:42:43;;;;;;;1.33;1.23;;;;;;;;;;5041374;28;20048;-81
2023/04/05 00:45:09;;;;;;;3.63;2.17;;;;;;;;;;5039878;28;20030;-82
2023/04/05 00:47:35;;;;;;;1.23;1.05;;;;;;;;;;5046730;28;20072;-82
2023/04/05 00:50:02;;;;;;;2.10;1.40;;;;;;;;;;5043519;28;20048;-82
2023/04/05 00:52:29;;;;;;;2.25;2.10;;;;;;;;;;5043571;28;20029;-81
2023/04/05 00:54:55;;;;;;;3.28;2.22;;;;;;;;;;5039988;28;20033;-81
2023/04/05 00:57:21;;;;;;;4.95;2.67;;;;;;;;;;5039576;28;20856;-82
2023/04/05 00:59:47;;;;;;;1.38;0.85;;;;;;;;;;5043152;28;20026;-84
2023/04/05 01:02:19;;;;;;;2.38;1.65;;;;;;;;;;5043454;28;20021;-82
2023/04/05 01:04:50;;;;;;;3.90;1.75;;;;;;;;;;5043661;28;20492;-83
2023/04/05 01:07:30;;;;;;;1.42;1.27;;;;;;;;;;5041386;28;20029;-83
2023/04/05 01:09:57;;;;;;;2.55;1.65;;;;;;;;;;5044179;28;20055;-83
2023/04/05 01:12:27;;;;;;;1.08;0.75;;;;;;;;;;5041549;28;20373;-81
2023/04/05 01:14:54;;;;;;;2.88;1.75;;;;;;;;;;5044034;28;20029;-82
2023/04/05 01:17:27;;;;;;;1.08;1.02;;;;;;;;;;5040829;28;20096;-82
2023/04/05 01:19:59;;;;;;;3.78;2.03;;;;;;;;;;5044353;28;20021;-82
2023/04/05 01:22:30;;;;;;;1.63;1.27;;;;;;;;;;5050203;28;20030;-83
2023/04/05 01:25:21;;;;;;;1.25;1.15;;;;;;;;;;5041935;28;20026;-82
2023/04/05 01:28:20;;;;;;;1.25;1.10;;;;;;;;;;5044858;28;20386;-83
2023/04/05 01:30:53;;;;;;;1.97;1.37;;;;;;;;;;5042514;28;20029;-82
2023/04/05 01:33:43;;;;;;;1.50;1.20;;;;;;;;;;5046878;28;20110;-81
2023/04/05 01:36:28;;;;;;;2.65;1.35;;;;;;;;;;5039207;28;20018;-82
2023/04/05 01:38:54;;;;;;;1.52;1.42;;;;;;;;;;5043001;28;20037;-81
2023/04/05 01:41:21;;;;;;;2.90;1.40;;;;;;;;;;5048412;28;20033;-85
2023/04/05 01:43:46;;;;;;;5.70;2.05;;;;;;;;;;5044377;28;20089;-81
2023/04/05 01:46:12;;;;;;;3.28;1.35;;;;;;;;;;5042081;28;20441;-83
2023/04/05 01:48:37;;;;;;;1.67;1.55;;;;;;;;;;5048391;28;20025;-81
2023/04/05 01:51:03;;;;;;;1.33;1.15;;;;;;;;;;5041547;28;20045;-82
2023/04/05 01:53:29;;;;;;;4.45;2.15;;;;;;;;;;5042547;28;20376;-85
2023/04/05 01:56:00;;;;;;;3.35;1.40;;;;;;;;;;5043723;28;20025;-85
2023/04/05 01:58:25;;;;;;;1.45;1.35;;;;;;;;;;5042318;28;20021;-84
2023/04/05 02:00:55;;;;;;;2.03;1.65;;;;;;;;;;5046669;28;20039;-83
2023/04/05 02:03:24;;;;;;;0.80;0.80;;;;;;;;;;5043224;28;20028;-85
2023/04/05 02:05:50;;;;;;;1.30;1.10;;;;;;;;;;5051442;28;20021;-85
2023/04/05 02:08:15;;;;;;;1.85;1.38;;;;;;;;;;5047850;28;20051;-84
2023/04/05 02:10:41;;;;;;;1.17;1.08;;;;;;;;;;5042156;28;20434;-83
2023/04/05 02:13:07;;;;;;;3.30;2.33;;;;;;;;;;5043626;28;20026;-84
2023/04/05 02:15:32;;;;;;;1.38;1.10;;;;;;;;;;5047707;28;20041;-82
2023/04/05 02:18:00;;;;;;;3.38;1.05;;;;;;;;;;5045028;28;20108;-82
2023/04/05 02:20:27;;;;;;;0.95;0.93;;;;;;;;;;5038713;28;20037;-81
2023/04/05 02:22:53;;;;;;;1.25;1.15;;;;;;;;;;5043050;28;20127;-81
2023/04/05 02:25:18;;;;;;;0.40;0.40;;;;;;;;;;5041093;28;20111;-82
2023/04/05 02:27:44;;;;;;;1.55;1.35;;;;;;;;;;5045527;28;20028;-84
2023/04/05 02:30:12;;;;;;;1.27;1.17;;;;;;;;;;5043706;28;20032;-82
2023/04/05 02:32:38;;;;;;;3.53;1.67;;;;;;;;;;5043666;28;20044;-82
2023/04/05 02:35:04;;;;;;;1.02;0.93;;;;;;;;;;5044000;28;20025;-81
2023/04/05 02:37:30;;;;;;;1.35;0.65;;;;;;;;;;5044540;28;20031;-82
2023/04/05 02:39:55;;;;;;;1.60;1.50;;;;;;;;;;5039572;28;20402;-81
2023/04/05 02:42:21;;;;;;;0.88;0.88;;;;;;;;;;5046740;28;20044;-82
2023/04/05 02:44:46;;;;;;;1.65;0.68;;;;;;;;;;5041495;28;20029;-82
2023/04/05 02:47:16;;;;;;;4.43;1.42;;;;;;;;;;5037732;28;20033;-82
2023/04/05 02:49:41;;;;;;;1.40;1.30;;;;;;;;;;5042930;28;20083;-81
2023/04/05 02:52:06;;;;;;;0.95;0.90;;;;;;;;;;5045010;28;20127;-81
2023/04/05 02:54:32;;;;;;;1.17;1.05;;;;;;;;;;5045729;28;20029;-82
2023/04/05 02:57:01;;;;;;;2.38;1.63;;;;;;;;;;5046675;28;20029;-84
2023/04/05 02:59:26;;;;;;;1.60;0.90;;;;;;;;;;5036413;28;20033;-80
2023/04/05 03:01:51;;;;;;;0.65;0.65;;;;;;;;;;5043576;28;20028;-81
2023/04/05 03:04:17;;;;;;;1.92;1.23;;;;;;;;;;5039035;28;20587;-80
2023/04/05 03:06:45;;;;;;;0.70;0.70;;;;;;;;;;5044552;28;20027;-81
2023/04/05 03:09:10;;;;;;;0.60;0.60;;;;;;;;;;5037136;28;20025;-83
2023/04/05 03:11:36;;;;;;;1.15;0.85;;;;;;;;;;5041327;28;20040;-81
2023/04/05 03:14:01;;;;;;;0.52;0.52;;;;;;;;;;5041485;28;20711;-84
2023/04/05 03:16:27;;;;;;;1.20;1.00;;;;;;;;;;5044459;28;20028;-83
2023/04/05 03:18:52;;;;;;;0.85;0.65;;;;;;;;;;5039238;28;20025;-85
2023/04/05 03:21:18;;;;;;;2.13;1.13;;;;;;;;;;5034327;28;20033;-82
2023/04/05 03:23:47;;;;;;;1.50;1.17;;;;;;;;;;5046674;28;20028;-82
2023/04/05 03:26:14;;;;;;;0.80;0.80;;;;;;;;;;5042450;28;20029;-82
2023/04/05 03:28:43;;;;;;;0.93;0.82;;;;;;;;;;5042221;28;20039;-82
2023/04/05 03:31:09;;;;;;;0.55;0.55;;;;;;;;;;5046407;28;20040;-82
2023/04/05 03:33:35;;;;;;;1.23;1.13;;;;;;;;;;5040850;28;20056;-81
2023/04/05 03:36:00;;;;;;;1.48;1.08;;;;;;;;;;5041717;28;20097;-84
2023/04/05 03:38:37;;;;;;;1.38;1.27;;;;;;;;;;5038166;28;20091;-84
2023/04/05 03:41:02;;;;;;;2.50;1.48;;;;;;;;;;5040121;28;20032;-85
2023/04/05 03:43:29;;;;;;;1.42;1.00;;;;;;;;;;5045097;28;20045;-85
2023/04/05 03:45:55;;;;;;;1.45;1.33;;;;;;;;;;5035993;28;20029;-85
2023/04/05 03:48:20;;;;;;;1.33;1.00;;;;;;;;;;5049432;28;20031;-83
2023/04/05 03:50:46;;;;;;;1.52;0.57;;;;;;;;;;5043643;28;20022;-86
2023/04/05 03:53:12;;;;;;;1.35;1.15;;;;;;;;;;5043190;28;20036;-84
2023/04/05 03:55:38;;;;;;;0.95;0.73;;;;;;;;;;5045243;28;20032;-85
2023/04/05 03:58:04;;;;;;;2.05;0.90;;;;;;;;;;5047499;28;20121;-85
2023/04/05 04:00:29;;;;;;;1.10;1.00;;;;;;;;;;5041635;28;20103;-84
2023/04/05 04:02:55;;;;;;;3.03;1.13;;;;;;;;;;5044152;28;20024;-83
2023/04/05 04:05:20;;;;;;;1.70;0.95;;;;;;;;;;5040159;28;20030;-84
2023/04/05 04:07:46;;;;;;;1.15;0.95;;;;;;;;;;5047502;28;20031;-83
2023/04/05 04:10:15;;;;;;;1.15;1.05;;;;;;;;;;5042599;28;20083;-86
2023/04/05 04:12:41;;;;;;;3.00;1.35;;;;;;;;;;5042717;28;20025;-84
2023/04/05 04:15:06;;;;;;;2.42;1.58;;;;;;;;;;5041719;28;20025;-81
2023/04/05 04:17:34;;;;;;;2.00;1.67;;;;;;;;;;5042795;28;20116;-81
2023/04/05 04:19:59;;;;;;;3.53;2.35;;;;;;;;;;5037552;28;20029;-81
2023/04/05 04:22:31;;;;;;;0.82;0.82;;;;;;;;;;5042932;28;20035;-81
2023/04/05 04:25:03;;;;;;;2.83;1.35;;;;;;;;;;5041075;28;20025;-83
2023/04/05 04:27:30;;;;;;;1.23;1.13;;;;;;;;;;5043749;28;20104;-81
2023/04/05 04:30:00;;;;;;;1.33;1.05;;;;;;;;;;5039229;28;20032;-85
2023/04/05 04:32:46;;;;;;;0.85;0.70;;;;;;;;;;5042834;28;20179;-83
2023/04/05 04:35:16;;;;;;;2.95;1.10;;;;;;;;;;5041641;28;20025;-83
2023/04/05 04:37:51;;;;;;;1.40;1.30;;;;;;;;;;5037442;28;20422;-80
2023/04/05 04:40:17;;;;;;;0.80;0.80;;;;;;;;;;5034364;28;20083;-82
2023/04/05 04:42:45;;;;;;;1.13;0.60;;;;;;;;;;5038734;28;20050;-82
2023/04/05 04:45:17;;;;;;;1.73;1.05;;;;;;;;;;5038008;28;20041;-83
2023/04/05 04:47:47;;;;;;;0.90;0.73;;;;;;;;;;5044715;28;20035;-81
2023/04/05 04:50:14;;;;;;;0.35;0.32;;;;;;;;;;5041478;28;20021;-87
2023/04/05 04:52:41;;;;;;;0.57;0.57;;;;;;;;;;5038254;28;20032;-88
2023/04/05 04:55:13;;;;;;;0.50;0.50;;;;;;;;;;5037950;28;20028;-84
2023/04/05 04:57:39;;;;;;;0.95;0.88;;;;;;;;;;5041044;28;20086;-84
2023/04/05 05:00:11;;;;;;;0.45;0.45;;;;;;;;;;5040512;28;20039;-84
2023/04/05 05:02:36;;;;;;;1.17;0.68;;;;;;;;;;5038735;28;20025;-85
2023/04/05 05:05:03;;;;;;;0.82;0.82;;;;;;;;;;5045850;28;20500;-88
2023/04/05 05:07:30;;;;;;;1.33;1.23;;;;;;;;;;5033393;28;20044;-84
2023/04/05 05:09:55;;;;;;;1.92;1.05;;;;;;;;;;5034878;28;20029;-85
2023/04/05 05:12:21;;;;;;;1.90;0.63;;;;;;;;;;5040622;28;20661;-87
2023/04/05 05:14:46;;;;;;;0.70;0.70;;;;;;;;;;5034848;28;20048;-84
2023/04/05 05:17:12;;;;;;;0.50;0.50;;;;;;;;;;5041043;28;20059;-83
2023/04/05 05:19:37;;;;;;;1.70;1.50;;;;;;;;;;5036660;28;20041;-83
2023/04/05 05:22:03;;;;;;;0.60;0.47;;;;;;;;;;5042326;28;20026;-83
2023/04/05 05:24:28;;;;;;;0.30;0.30;;;;;;;;;;5041786;28;20037;-83
2023/04/05 05:26:54;;;;;;;0.63;0.63;;;;;;;;;;5040194;28;20045;-83
2023/04/05 05:29:19;;;;;;;0.50;0.50;;;;;;;;;;5037503;28;20052;-83
2023/04/05 05:31:45;;;;;;;1.90;1.25;;;;;;;;;;5037381;28;20025;-85
2023/04/05 05:34:10;;;;;;;1.33;0.93;;;;;;;;;;5040005;28;20018;-84
2023/04/05 05:36:36;;;;;;;1.48;1.38;;;;;;;;;;5045473;28;20036;-84
2023/04/05 05:39:04;;;;;;;2.42;1.55;;;;;;;;;;5051042;28;20027;-84
2023/04/05 05:41:30;;;;;;;1.38;1.27;;;;;;;;;;5051281;28;20523;-83
2023/04/05 05:43:55;;;;;;;1.73;1.23;;;;;;;;;;5041159;28;20038;-85
2023/04/05 05:46:21;;;;;;;1.45;1.00;;;;;;;;;;5042463;28;20074;-84
2023/04/05 05:48:46;;;;;;;2.05;1.25;;;;;;;;;;5042924;28;20048;-86
2023/04/05 05:51:11;;;;;;;3.08;2.30;;;;;;;;;;5042837;28;20033;-84
2023/04/05 05:53:38;;;;;;;0.75;0.65;;;;;;;;;;5041887;28;20021;-86
2023/04/05 05:56:03;;;;;;;0.43;0.43;;;;;;;;;;5042861;28;20466;-83
2023/04/05 05:58:29;;;;;;;0.88;0.88;;;;;;;;;;5043035;28;20041;-83
2023/04/05 06:00:55;;;;;;;0.55;0.55;;;;;;;;;;5046330;28;20033;-82
2023/04/05 06:03:20;;;;;;;0.40;0.40;;;;;;;;;;5043483;28;20044;-83
2023/04/05 06:05:56;;;;;;;0.38;0.38;;;;;;;;;;5040221;28;20033;-82
2023/04/05 06:08:22;;;;;;;0.30;0.30;;;;;;;;;;5045145;28;20026;-83
2023/04/05 06:10:49;;;;;;;1.55;0.60;;;;;;;;;;5047156;28;20100;-84
2023/04/05 06:13:15;;;;;;;0.75;0.75;;;;;;;;;;5043253;28;20523;-83
2023/04/05 06:15:41;;;;;;;3.10;0.77;;;;;;;;;;5043543;28;20033;-84
2023/04/05 06:18:07;;;;;;;1.50;0.93;;;;;;;;;;5037007;28;20075;-83
2023/04/05 06:20:32;;;;;;;1.13;0.57;;;;;;;;;;5035817;28;20025;-83
2023/04/05 06:22:58;;;;;;;0.30;0.30;;;;;;;;;;5041820;28;20040;-85
2023/04/05 06:25:23;;;;;;;0.80;0.80;;;;;;;;;;5047249;28;20111;-85
2023/04/05 06:27:49;;;;;;;0.40;0.40;;;;;;;;;;5040455;28;20021;-82
2023/04/05 06:30:14;;;;;;;0.40;0.40;;;;;;;;;;5043899;28;20503;-81
2023/04/05 06:32:40;;;;;;;0.50;0.40;;;;;;;;;;5039454;28;20025;-84
2023/04/05 06:35:06;;;;;;;0.38;0.38;;;;;;;;;;5035348;28;20021;-81
2023/04/05 06:37:31;;;;;;;0.45;0.45;;;;;;;;;;5042303;28;20020;-81
2023/04/05 06:39:58;;;;;;;0.73;0.70;;;;;;;;;;5038740;28;20466;-82
2023/04/05 06:42:24;;;;;;;0.40;0.40;;;;;;;;;;5046484;28;20032;-82
2023/04/05 06:44:49;;;;;;;0.60;0.50;;;;;;;;;;5041498;28;20071;-80
2023/04/05 06:47:15;;;;;;;0.40;0.40;;;;;;;;;;5042637;28;20033;-82
2023/04/05 06:49:41;;;;;;;3.70;1.33;;;;;;;;;;5042820;28;20029;-81
2023/04/05 06:52:07;;;;;;;0.45;0.35;;;;;;;;;;5047746;28;20108;-82
2023/04/05 06:54:33;;;;;;;0.30;0.30;;;;;;;;;;5042012;28;20466;-81
2023/04/05 06:56:58;;;;;;;1.55;0.75;;;;;;;;;;5039493;28;20473;-82
2023/04/05 06:59:24;;;;;;;1.05;0.95;;;;;;;;;;5039858;28;20029;-82
2023/04/05 07:01:49;;;;;;;0.38;0.38;;;;;;;;;;5039001;28;20108;-82
2023/04/05 07:04:15;;;;;;;0.73;0.55;;;;;;;;;;5040299;28;20074;-80
2023/04/05 07:06:40;;;;;;;0.45;0.45;;;;;;;;;;5037430;28;20025;-80
2023/04/05 07:09:06;;;;;;;0.30;0.30;;;;;;;;;;5046318;28;20028;-83
2023/04/05 07:11:31;;;;;;;0.75;0.75;;;;;;;;;;5041742;28;20025;-81
2023/04/05 07:13:58;;;;;;;0.40;0.40;;;;;;;;;;5039258;28;20378;-82
2023/04/05 07:16:24;;;;;;;2.47;0.90;;;;;;;;;;5035684;28;20029;-86
2023/04/05 07:18:50;;;;;;;1.08;0.50;;;;;;;;;;5040991;28;20367;-83
2023/04/05 07:21:15;;;;;;;0.40;0.40;;;;;;;;;;5041905;28;20095;-86
2023/04/05 07:23:41;;;;;;;1.08;0.98;;;;;;;;;;5034654;28;20128;-84
2023/04/05 07:26:07;;;;;;;1.63;0.50;;;;;;;;;;5039667;28;20081;-81
2023/04/05 07:28:34;;;;;;;0.32;0.32;;;;;;;;;;5038493;28;20032;-81
2023/04/05 07:31:03;;;;;;;0.75;0.75;;;;;;;;;;5039737;28;20029;-83
2023/04/05 07:33:29;;;;;;;1.05;0.93;;;;;;;;;;5039376;28;20491;-82
2023/04/05 07:35:55;;;;;;;0.40;0.40;;;;;;;;;;5040630;28;20041;-83
2023/04/05 07:38:21;;;;;;;1.05;0.95;;;;;;;;;;5036565;28;20041;-81
2023/04/05 07:40:50;;;;;;;3.15;2.30;;;;;;;;;;5035179;28;20029;-81
2023/04/05 07:43:18;;;;;;;1.35;0.93;;;;;;;;;;5037178;28;20045;-80
2023/04/05 07:45:43;;;;;;;4.57;1.75;;;;;;;;;;5032719;28;20581;-81
2023/04/05 07:48:09;;;;;;;1.83;1.00;;;;;;;;;;5038806;28;20104;-83
2023/04/05 07:50:35;;;;;;;2.05;1.20;;;;;;;;;;5041561;28;20061;-81
2023/04/05 07:53:00;;;;;;;0.73;0.73;;;;;;;;;;5036526;28;20478;-82
2023/04/05 07:55:26;;;;;;;1.25;0.98;;;;;;;;;;5035455;28;20047;-82
2023/04/05 07:57:52;;;;;;;1.23;1.13;;;;;;;;;;5035482;28;20029;-82
2023/04/05 08:00:20;;;;;;;1.65;0.75;;;;;;;;;;5038062;28;20053;-81
2023/04/05 08:02:45;;;;;;;0.75;0.70;;;;;;;;;;5038996;28;20026;-81
2023/04/05 08:05:11;;;;;;;0.98;0.47;;;;;;;;;;5037909;28;20029;-83
2023/04/05 08:07:36;;;;;;;2.38;1.30;;;;;;;;;;5043890;28;20064;-81
2023/04/05 08:10:03;;;;;;;0.70;0.70;;;;;;;;;;5044659;28;20420;-80
2023/04/05 08:12:30;;;;;;;0.50;0.50;;;;;;;;;;5037619;28;20060;-82
2023/04/05 08:14:56;;;;;;;0.52;0.52;;;;;;;;;;5040240;28;20017;-82
2023/04/05 08:17:22;;;;;;;2.83;1.30;;;;;;;;;;5036255;28;20033;-82
2023/04/05 08:19:48;;;;;;;0.93;0.82;;;;;;;;;;5044328;28;20040;-82
2023/04/05 08:22:15;;;;;;;5.20;2.20;;;;;;;;;;5037208;28;20482;-81
2023/04/05 08:24:41;;;;;;;0.73;0.73;;;;;;;;;;5035938;28;20067;-81
2023/04/05 08:27:06;;;;;;;0.25;0.25;;;;;;;;;;5039935;28;20028;-81
2023/04/05 08:29:31;;;;;;;1.60;1.13;;;;;;;;;;5038525;28;20033;-81
2023/04/05 08:31:57;;;;;;;3.08;1.17;;;;;;;;;;5043781;28;20033;-80
2023/04/05 08:34:23;;;;;;;1.35;1.00;;;;;;;;;;5041530;28;20032;-82
2023/04/05 08:36:48;;;;;;;0.57;0.55;;;;;;;;;;5044473;28;20025;-82
2023/04/05 08:39:14;;;;;;;1.80;1.33;;;;;;;;;;5036204;28;20083;-83
2023/04/05 08:41:46;;;;;;;0.47;0.47;;;;;;;;;;5040507;28;20017;-82
2023/04/05 08:44:12;;;;;;;1.45;0.85;;;;;;;;;;5033507;28;20559;-81
2023/04/05 08:46:38;;;;;;;2.03;1.45;;;;;;;;;;5034366;28;20374;-81
2023/04/05 08:49:06;;;;;;;0.47;0.47;;;;;;;;;;5040065;28;20036;-80
2023/04/05 08:51:32;;;;;;;0.88;0.88;;;;;;;;;;5042656;28;20461;-83
2023/04/05 08:53:58;;;;;;;1.67;1.25;;;;;;;;;;5039782;28;20020;-82
2023/04/05 08:56:34;;;;;;;2.38;1.30;;;;;;;;;;5037497;28;20039;-81
2023/04/05 08:59:05;;;;;;;1.88;1.35;;;;;;;;;;5036132;28;20099;-82
2023/04/05 09:01:32;;;;;;;0.88;0.88;;;;;;;;;;5040522;28;20109;-82
2023/04/05 09:04:00;;;;;;;1.50;1.40;;;;;;;;;;5039771;28;20618;-84
2023/04/05 09:06:29;;;;;;;1.00;0.75;;;;;;;;;;5041637;28;20040;-82
2023/04/05 09:08:57;;;;;;;0.68;0.68;;;;;;;;;;5039545;28;20063;-80
2023/04/05 09:11:24;;;;;;;1.38;0.70;;;;;;;;;;5035193;28;20057;-80
2023/04/05 09:13:50;;;;;;;0.60;0.60;;;;;;;;;;5038156;28;20028;-80
2023/04/05 09:16:16;;;;;;;0.68;0.68;;;;;;;;;;5028002;28;20385;-82
2023/04/05 09:18:42;;;;;;;0.30;0.30;;;;;;;;;;5045715;28;20031;-80
2023/04/05 09:21:08;;;;;;;2.10;1.40;;;;;;;;;;5040430;28;20509;-82
2023/04/05 09:23:35;;;;;;;1.88;1.10;;;;;;;;;;5049830;28;20078;-81
2023/04/05 09:26:01;;;;;;;2.83;1.48;;;;;;;;;;5041839;28;20583;-81
2023/04/05 09:28:41;;;;;;;2.10;0.88;;;;;;;;;;5039231;28;20040;-80
2023/04/05 09:31:07;;;;;;;;;;;;;;;;;;5039454;28;20163;-86
2023/04/05 09:33:33;;;;;;;4.70;1.70;;;;;;;;;;5040092;28;20015;-84
2023/04/05 09:35:58;;;;;;;0.70;0.65;;;;;;;;;;5048208;28;20028;-83
2023/04/05 09:38:44;;;;;;;1.67;0.63;;;;;;;;;;5041319;28;20043;-81
2023/04/05 09:41:10;;;;;;;0.90;0.90;;;;;;;;;;5042478;28;20021;-81
2023/04/05 09:43:40;;;;;;;2.17;1.13;;;;;;;;;;5041646;28;20048;-80
2023/04/05 09:46:15;;;;;;;0.93;0.93;;;;;;;;;;5044493;28;20108;-80
2023/04/05 09:48:50;;;;;;;2.58;1.38;;;;;;;;;;5046121;28;20029;-82
2023/04/05 09:51:16;;;;;;;2.33;1.60;;;;;;;;;;5034397;28;20083;-82
2023/04/05 09:54:02;;;;;;;1.33;1.20;;;;;;;;;;5043976;28;20027;-80
2023/04/05 09:56:35;;;;;;;1.25;1.15;;;;;;;;;;5036833;28;20083;-81
2023/04/05 09:59:05;;;;;;;1.75;0.85;;;;;;;;;;5035145;28;20036;-80
2023/04/05 10:01:30;;;;;;;;;;;;;;;;;;5043449;28;20041;-83
2023/04/05 10:03:57;;;;;;;4.32;2.45;;;;;;;;;;5046057;28;19924;-82
2023/04/05 10:06:23;;;;;;;2.25;1.52;;;;;;;;;;5040465;28;20049;-81
2023/04/05 10:08:50;;;;;;;1.52;1.35;;;;;;;;;;5040844;28;20115;-84
2023/04/05 10:11:17;;;;;;;1.48;1.35;;;;;;;;;;5044573;28;20060;-83
2023/04/05 10:13:44;;;;;;;0.98;0.63;;;;;;;;;;5041199;28;20573;-82
2023/04/05 10:16:16;;;;;;;2.47;1.50;;;;;;;;;;5045953;28;20036;-82
2023/04/05 10:18:49;;;;;;;1.65;1.50;;;;;;;;;;5037120;28;20041;-82
2023/04/05 10:21:25;;;;;;;2.30;1.58;;;;;;;;;;5042849;28;20048;-83
2023/04/05 10:24:08;;;;;;;0.77;0.77;;;;;;;;;;5042258;28;20647;-78
2023/04/05 10:26:58;;;;;;;3.58;1.48;;;;;;;;;;5045479;28;20029;-80
2023/04/05 10:29:35;;;;;;;1.45;1.27;;;;;;;;;;5039016;28;20036;-85
2023/04/05 10:32:12;;;;;;;1.25;0.93;;;;;;;;;;5030744;28;20029;-87
2023/04/05 10:34:53;;;;;;;2.03;1.38;;;;;;;;;;5038546;28;20394;-81
2023/04/05 10:37:32;;;;;;;1.50;1.30;;;;;;;;;;5036203;28;20045;-81
2023/04/05 10:40:03;;;;;;;2.80;1.85;;;;;;;;;;5037840;28;20483;-80
2023/04/05 10:42:41;;;;;;;0.70;0.68;;;;;;;;;;5045102;28;20049;-80
2023/04/05 10:45:10;;;;;;;2.00;1.23;;;;;;;;;;5038829;28;20025;-81
2023/04/05 10:47:46;;;;;;;1.23;0.90;;;;;;;;;;5042016;28;20037;-82
2023/04/05 10:50:19;;;;;;;2.90;1.75;;;;;;;;;;5037233;28;20390;-81
2023/04/05 10:52:46;;;;;;;2.78;1.90;;;;;;;;;;5038580;28;20104;-79
2023/04/05 10:55:11;;;;;;;3.25;2.30;;;;;;;;;;5045858;28;20017;-80
2023/04/05 10:57:37;;;;;;;2.17;1.85;;;;;;;;;;5032166;28;20040;-81
2023/04/05 11:00:03;;;;;;;3.15;2.45;;;;;;;;;;5038495;28;20533;-81
2023/04/05 11:02:29;;;;;;;2.45;2.22;;;;;;;;;;5035528;28;20048;-80
2023/04/05 11:04:58;;;;;;;2.05;1.52;;;;;;;;;;5032007;28;20038;-83
2023/04/05 11:07:23;;;;;;;3.40;2.60;;;;;;;;;;5032102;28;20044;-80
2023/04/05 11:09:49;;;;;;;1.50;1.05;;;;;;;;;;5040288;28;20274;-81
2023/04/05 11:12:15;;;;;;;2.75;2.00;;;;;;;;;;5033452;28;20117;-84
2023/04/05 11:14:42;;;;;;;3.25;1.98;;;;;;;;;;5039913;28;20017;-80
2023/04/05 11:17:27;;;;;;;2.83;2.33;;;;;;;;;;5041144;28;20021;-81
2023/04/05 11:20:04;;;;;;;2.53;1.92;;;;;;;;;;5031115;28;20107;-81
2023/04/05 11:22:30;;;;;;;3.60;2.00;;;;;;;;;;5041213;28;20044;-83
2023/04/05 11:25:00;;;;;;;2.28;1.85;;;;;;;;;;5037846;28;20033;-84
2023/04/05 11:27:28;;;;;;;2.08;1.48;;;;;;;;;;5044399;28;20036;-83
2023/04/05 11:29:55;;;;;;;2.83;1.58;;;;;;;;;;5047807;28;20040;-82
2023/04/05 11:32:21;;;;;;;2.05;1.80;;;;;;;;;;5036029;28;20029;-83
2023/04/05 11:35:03;;;;;;;3.95;1.88;;;;;;;;;;5039041;28;20789;-84
2023/04/05 11:38:01;;;;;;;1.50;1.33;;;;;;;;;;5046175;28;20032;-84
2023/04/05 11:40:31;;;;;;;2.72;1.70;;;;;;;;;;5016939;28;20056;-81
2023/04/05 11:42:58;;;;;;;2.67;1.75;;;;;;;;;;5039179;28;20467;-80
2023/04/05 11:45:24;;;;;;;4.63;4.13;;;;;;;;;;5040762;28;20366;-84
2023/04/05 11:47:50;;;;;;;1.80;1.30;;;;;;;;;;5041969;28;20055;-83
2023/04/05 11:50:15;;;;;;;1.85;1.42;;;;;;;;;;5041044;28;20028;-82
2023/04/05 11:52:41;;;;;;;1.83;1.63;;;;;;;;;;5042279;28;20382;-82
2023/04/05 11:55:07;;;;;;;3.85;1.40;;;;;;;;;;5029728;28;20377;-80
2023/04/05 11:57:35;;;;;;;6.47;2.28;;;;;;;;;;5039163;28;20033;-82
2023/04/05 12:00:00;;;;;;;2.83;2.13;;;;;;;;;;5041970;28;20029;-80
2023/04/05 12:02:26;;;;;;;3.13;2.33;;;;;;;;;;5036740;28;20033;-81
2023/04/05 12:04:56;;;;;;;3.00;2.15;;;;;;;;;;5040880;28;20032;-81
2023/04/05 12:07:24;;;;;;;;;;;;;;;;;;5033300;28;20491;-79
2023/04/05 12:10:04;;;;;;;3.72;1.98;;;;;;;;;;5031710;28;20573;-80
2023/04/05 12:12:47;;;;;;;;;;;;;;;;;;5030417;28;20045;-80
2023/04/05 12:15:16;;;;;;;2.80;1.65;;;;;;;;;;5038469;28;19952;-81
2023/04/05 12:17:48;;;;;;;2.55;1.83;;;;;;;;;;5035912;28;20025;-81
2023/04/05 12:20:19;;;;;;;2.72;2.22;;;;;;;;;;5038966;28;20524;-82
2023/04/05 12:22:47;;;;;;;1.83;1.55;;;;;;;;;;5036378;28;20021;-78
2023/04/05 12:25:13;;;;;;;2.80;2.28;;;;;;;;;;5042138;28;20104;-80
2023/04/05 12:27:40;;;;;;;3.28;2.15;;;;;;;;;;5043767;28;20024;-79
2023/04/05 12:30:14;;;;;;;4.15;2.38;;;;;;;;;;5038735;28;20484;-79
2023/04/05 12:32:42;;;;;;;4.00;2.85;;;;;;;;;;5032712;28;20083;-79
2023/04/05 12:35:14;;;;;;;2.97;2.22;;;;;;;;;;5028934;28;20109;-79
2023/04/05 12:37:40;;;;;;;2.78;2.25;;;;;;;;;;5031539;28;20034;-79
2023/04/05 12:40:06;;;;;;;1.75;1.17;;;;;;;;;;5032817;28;20025;-82
2023/04/05 12:42:36;;;;;;;1.30;1.20;;;;;;;;;;5037036;28;20469;-79
2023/04/05 12:45:04;;;;;;;3.90;2.55;;;;;;;;;;5035305;28;20108;-80
2023/04/05 12:47:32;;;;;;;4.03;2.67;;;;;;;;;;5030227;28;20434;-81
2023/04/05 12:49:57;;;;;;;3.47;2.65;;;;;;;;;;5040730;28;20040;-81
2023/04/05 12:52:26;;;;;;;3.28;2.90;;;;;;;;;;5038053;28;20029;-78
2023/04/05 12:54:54;;;;;;;1.20;1.15;;;;;;;;;;5037136;28;21147;-81
2023/04/05 12:57:30;;;;;;;1.08;0.98;;;;;;;;;;5041502;28;20028;-81
2023/04/05 12:59:56;;;;;;;3.00;2.10;;;;;;;;;;5036655;28;20024;-79
2023/04/05 13:02:21;;;;;;;4.40;2.95;;;;;;;;;;5040516;28;20216;-79
2023/04/05 13:04:47;;;;;;;3.58;1.67;;;;;;;;;;5041093;28;21843;-82
2023/04/05 13:07:12;;;;;;;5.32;3.13;;;;;;;;;;5044074;28;20030;-80
2023/04/05 13:09:37;;;;;;;2.78;1.95;;;;;;;;;;5037646;28;20029;-81
2023/04/05 13:12:03;;;;;;;2.75;1.92;;;;;;;;;;5036042;28;20033;-81
2023/04/05 13:14:28;;;;;;;2.92;2.35;;;;;;;;;;5042134;28;20057;-79
2023/04/05 13:16:54;;;;;;;1.80;1.70;;;;;;;;;;5029453;28;20026;-80
2023/04/05 13:19:19;;;;;;;2.90;2.25;;;;;;;;;;5034519;28;20481;-80
2023/04/05 13:21:45;;;;;;;5.28;2.33;;;;;;;;;;5037197;28;20512;-83
2023/04/05 13:24:10;;;;;;;3.20;2.17;;;;;;;;;;5035819;28;20060;-81
2023/04/05 13:26:36;;;;;;;3.70;2.80;;;;;;;;;;5037577;28;20530;-81
2023/04/05 13:29:02;;;;;;;3.47;2.80;;;;;;;;;;5044310;28;20056;-80
2023/04/05 13:31:27;;;;;;;5.00;2.03;;;;;;;;;;5040293;28;20116;-82
2023/04/05 13:33:53;;;;;;;3.22;2.60;;;;;;;;;;5041170;28;20426;-83
2023/04/05 13:36:18;;;;;;;2.53;1.67;;;;;;;;;;5038002;28;20056;-79
2023/04/05 13:38:44;;;;;;;2.05;1.70;;;;;;;;;;5033168;28;20057;-81
2023/04/05 13:41:09;;;;;;;3.42;2.17;;;;;;;;;;5042751;28;20036;-80
2023/04/05 13:43:35;;;;;;;3.83;2.63;;;;;;;;;;5039824;28;20053;-80
2023/04/05 13:46:00;;;;;;;4.53;2.53;;;;;;;;;;5032994;28;20500;-82
2023/04/05 13:48:26;;;;;;;7.30;4.30;;;;;;;;;;5038326;28;20689;-80
2023/04/05 13:50:51;;;;;;;3.80;2.42;;;;;;;;;;5035246;28;20063;-80
2023/04/05 13:53:16;;;;;;;6.18;3.50;;;;;;;;;;5034440;28;20025;-81
2023/04/05 13:55:42;;;;;;;5.65;2.88;;;;;;;;;;5038486;28;20017;-82
2023/04/05 13:58:07;;;;;;;3.70;2.80;;;;;;;;;;5042122;28;20474;-85
2023/04/05 14:00:33;;;;;;;4.93;2.58;;;;;;;;;;5038524;28;20034;-86
2023/04/05 14:02:58;;;;;;;4.28;2.90;;;;;;;;;;5042377;28;20033;-86
2023/04/05 14:05:24;;;;;;;3.67;2.75;;;;;;;;;;5042825;28;20029;-84
2023/04/05 14:07:49;;;;;;;4.80;2.28;;;;;;;;;;5046192;28;20032;-81
2023/04/05 14:10:16;;;;;;;6.18;4.40;;;;;;;;;;5040847;28;20465;-80
2023/04/05 14:12:41;;;;;;;6.20;4.45;;;;;;;;;;5041013;28;20068;-83
2023/04/05 14:15:07;;;;;;;5.95;3.53;;;;;;;;;;5043405;28;20053;-85
2023/04/05 14:17:33;;;;;;;8.27;3.22;;;;;;;;;;5042481;28;20031;-81
2023/04/05 14:19:58;;;;;;;8.00;3.65;;;;;;;;;;5039881;28;20037;-80
2023/04/05 14:22:24;;;;;;;6.78;3.42;;;;;;;;;;5041704;28;20098;-84
2023/04/05 14:24:50;;;;;;;4.85;2.85;;;;;;;;;;5040634;28;20040;-85
2023/04/05 14:27:15;;;;;;;4.40;2.00;;;;;;;;;;5035822;28;20033;-83
2023/04/05 14:29:41;;;;;;;4.22;3.28;;;;;;;;;;5044701;28;20092;-80
2023/04/05 14:32:06;;;;;;;4.35;3.08;;;;;;;;;;5038801;28;20033;-87
2023/04/05 14:34:32;;;;;;;5.68;2.17;;;;;;;;;;5044679;28;20535;-80
2023/04/05 14:36:59;;;;;;;4.25;2.55;;;;;;;;;;5038519;28;20032;-81
2023/04/05 14:39:25;;;;;;;5.28;2.35;;;;;;;;;;5043561;28;20036;-82
2023/04/05 14:41:51;;;;;;;3.55;2.53;;;;;;;;;;5044866;28;20021;-83
2023/04/05 14:44:17;;;;;;;5.78;3.45;;;;;;;;;;5035297;28;20034;-83
2023/04/05 14:46:42;;;;;;;4.40;3.05;;;;;;;;;;5034823;28;20041;-86